Time,TemperatureF,DewpointF,PressureIn,WindDirection,WindDirectionDegrees,WindSpeedMPH,WindSpeedGustMPH,Humidity,HourlyPrecipIn,Conditions,Clouds,dailyrainin,SoftwareType,DateUTC
2013-01-12 00:10:00,42.8,42.8,30.02,NE,42,10.4,-999.9,100,-99.99,,,-99.99,,2013-01-12 05:10:00,
2013-01-12 00:14:00,42.8,42.8,30.02,NE,42,10.4,-999.9,100,-99.99,,,-99.99,,2013-01-12 05:14:00,
2013-01-12 00:20:00,42.8,42.8,30.01,NE,45,6.9,-999.9,100,-99.99,,,-99.99,,2013-01-12 05:20:00,
2013-01-12 00:28:00,42.8,42.8,30.01,NE,45,6.9,-999.9,100,-99.99,,,-99.99,,2013-01-12 05:28:00,
2013-01-12 00:34:00,42.8,42.8,30.01,NE,38,10.4,-999.9,100,-99.99,,,-99.99,,2013-01-12 05:34:00,
2013-01-12 00:40:00,44.6,44.6,30.01,NE,40,10.4,-999.9,100,-99.99,,,-99.99,,2013-01-12 05:40:00,
2013-01-12 00:48:00,44.6,44.6,30.01,NE,40,10.4,-999.9,100,-99.99,,,-99.99,,2013-01-12 05:48:00,
2013-01-12 00:54:00,44.6,44.6,30.00,NE,38,11.5,-999.9,100,-99.99,,,-99.99,,2013-01-12 05:54:00,
2013-01-12 01:00:00,44.6,44.6,30.00,NE,40,11.5,-999.9,100,-99.99,,,-99.99,,2013-01-12 06:00:00,
2013-01-12 01:08:00,44.6,44.6,30.00,NE,40,11.5,-999.9,100,-99.99,,,-99.99,,2013-01-12 06:08:00,
2013-01-12 02:12:00,46.4,46.4,30.00,NNE,20,6.9,-999.9,100,-99.99,,,-99.99,,2013-01-12 07:12:00,
2013-01-12 02:20:00,46.4,46.4,30.00,NNE,26,9.2,-999.9,100,-99.99,,,-99.99,,2013-01-12 07:20:00,
2013-01-12 02:28:00,46.4,46.4,30.00,NNE,26,9.2,-999.9,100,-99.99,,,-99.99,,2013-01-12 07:28:00,
2013-01-12 02:34:00,46.4,46.4,30.00,NE,34,15.0,-999.9,100,-99.99,,,-99.99,,2013-01-12 07:34:00,
2013-01-12 02:40:00,46.4,46.4,30.00,NE,34,15.0,-999.9,100,-99.99,,,-99.99,,2013-01-12 07:40:00,
2013-01-12 02:48:00,46.4,46.4,30.01,NNE,14,6.9,-999.9,100,-99.99,,,-99.99,,2013-01-12 07:48:00,
2013-01-12 02:54:00,46.4,46.4,30.00,NNE,14,5.8,-999.9,100,-99.99,,,-99.99,,2013-01-12 07:54:00,
2013-01-12 03:00:00,46.4,46.4,30.01,North,2,6.9,-999.9,100,-99.99,,,-99.99,,2013-01-12 08:00:00,
2013-01-12 03:08:00,46.4,46.4,30.01,North,2,6.9,-999.9,100,-99.99,,,-99.99,,2013-01-12 08:08:00,
2013-01-12 03:14:00,46.4,46.4,30.01,NNE,20,6.9,-999.9,100,-99.99,,,-99.99,,2013-01-12 08:14:00,
2013-01-12 03:20:00,46.4,46.4,30.01,North,8,6.9,-999.9,100,-99.99,,,-99.99,,2013-01-12 08:20:00,
2013-01-12 03:28:00,46.4,46.4,30.01,North,8,6.9,-999.9,100,-99.99,,,-99.99,,2013-01-12 08:28:00,
2013-01-12 03:34:00,46.4,46.4,30.01,NNE,12,6.9,-999.9,100,-99.99,,,-99.99,,2013-01-12 08:34:00,
2013-01-12 03:40:00,46.4,46.4,30.00,NE,46,12.7,-999.9,100,-99.99,,,-99.99,,2013-01-12 08:40:00,
2013-01-12 03:48:00,46.4,46.4,30.00,NE,46,12.7,-999.9,100,-99.99,,,-99.99,,2013-01-12 08:48:00,
2013-01-12 03:54:00,46.4,46.4,30.01,NNE,25,9.2,-999.9,100,-99.99,,,-99.99,,2013-01-12 08:54:00,
2013-01-12 04:00:00,46.4,46.4,30.00,NE,45,11.5,-999.9,100,-99.99,,,-99.99,,2013-01-12 09:00:00,
2013-01-12 04:08:00,46.4,46.4,30.00,NE,45,11.5,-999.9,100,-99.99,,,-99.99,,2013-01-12 09:08:00,
2013-01-12 04:14:00,46.4,46.4,29.99,NE,42,12.7,-999.9,100,-99.99,,,-99.99,,2013-01-12 09:14:00,
2013-01-12 04:20:00,46.4,46.4,29.99,NE,42,10.4,-999.9,100,-99.99,,,-99.99,,2013-01-12 09:20:00,
2013-01-12 04:28:00,46.4,46.4,29.99,NE,42,10.4,-999.9,100,-99.99,,,-99.99,,2013-01-12 09:28:00,
2013-01-12 04:34:00,46.4,46.4,29.99,NE,35,11.5,-999.9,100,-99.99,,,-99.99,,2013-01-12 09:34:00,
2013-01-12 04:40:00,46.4,46.4,30.00,NE,37,9.2,-999.9,100,-99.99,,,-99.99,,2013-01-12 09:40:00,
2013-01-12 04:48:00,46.4,46.4,30.00,NE,37,9.2,-999.9,100,-99.99,,,-99.99,,2013-01-12 09:48:00,
2013-01-12 04:54:00,46.4,46.4,29.99,NE,45,9.2,-999.9,100,-99.99,,,-99.99,,2013-01-12 09:54:00,
2013-01-12 05:00:00,46.4,46.4,30.00,North,10,10.4,-999.9,100,-99.99,,,-99.99,,2013-01-12 10:00:00,
2013-01-12 05:08:00,46.4,46.4,30.00,North,10,10.4,-999.9,100,-99.99,,,-99.99,,2013-01-12 10:08:00,
2013-01-12 05:14:00,46.4,46.4,29.98,NE,35,9.2,-999.9,100,-99.99,,,-99.99,,2013-01-12 10:14:00,
2013-01-12 05:20:00,46.4,46.4,29.98,NE,37,12.7,-999.9,100,-99.99,,,-99.99,,2013-01-12 10:20:00,
2013-01-12 05:28:00,46.4,46.4,29.98,NE,37,12.7,-999.9,100,-99.99,,,-99.99,,2013-01-12 10:28:00,
2013-01-12 05:34:00,46.4,46.4,29.99,NE,37,10.4,-999.9,100,-99.99,,,-99.99,,2013-01-12 10:34:00,
2013-01-12 05:40:00,46.4,46.4,30.01,NE,44,11.5,-999.9,100,-99.99,,,-99.99,,2013-01-12 10:40:00,
2013-01-12 05:48:00,46.4,46.4,30.01,NE,44,11.5,-999.9,100,-99.99,,,-99.99,,2013-01-12 10:48:00,
2013-01-12 05:54:00,46.4,46.4,30.01,NE,45,11.5,-999.9,100,-99.99,,,-99.99,,2013-01-12 10:54:00,
2013-01-12 06:00:00,46.4,46.4,30.02,NNE,30,11.5,-999.9,100,-99.99,,,-99.99,,2013-01-12 11:00:00,
2013-01-12 06:08:00,46.4,46.4,30.02,NNE,30,11.5,-999.9,100,-99.99,,,-99.99,,2013-01-12 11:08:00,
2013-01-12 06:14:00,46.4,46.4,30.03,NNE,19,5.8,-999.9,100,-99.99,,,-99.99,,2013-01-12 11:14:00,
2013-01-12 06:20:00,46.4,46.4,30.03,NE,40,9.2,-999.9,100,-99.99,,,-99.99,,2013-01-12 11:20:00,
2013-01-12 06:28:00,46.4,46.4,30.03,NE,40,9.2,-999.9,100,-99.99,,,-99.99,,2013-01-12 11:28:00,
2013-01-12 06:34:00,46.4,46.4,30.03,NNE,31,6.9,-999.9,100,-99.99,,,-99.99,,2013-01-12 11:34:00,
2013-01-12 06:40:00,46.4,46.4,30.03,NNE,30,10.4,-999.9,100,-99.99,,,-99.99,,2013-01-12 11:40:00,
2013-01-12 06:48:00,46.4,46.4,30.03,NNE,30,10.4,-999.9,100,-99.99,,,-99.99,,2013-01-12 11:48:00,
2013-01-12 06:54:00,46.4,46.4,30.03,NNE,31,8.1,-999.9,100,-99.99,,,-99.99,,2013-01-12 11:54:00,
2013-01-12 07:00:00,46.4,46.4,30.03,NE,42,9.2,-999.9,100,-99.99,,,-99.99,,2013-01-12 12:00:00,
2013-01-12 07:08:00,46.4,46.4,30.03,NE,42,9.2,-999.9,100,-99.99,,,-99.99,,2013-01-12 12:08:00,
2013-01-12 07:14:00,46.4,46.4,30.03,NE,36,9.2,-999.9,100,-99.99,,,-99.99,,2013-01-12 12:14:00,
2013-01-12 07:20:00,46.4,46.4,30.03,NE,46,10.4,-999.9,100,-99.99,,,-99.99,,2013-01-12 12:20:00,
2013-01-12 07:28:00,46.4,46.4,30.03,NE,46,10.4,-999.9,100,-99.99,,,-99.99,,2013-01-12 12:28:00,
2013-01-12 07:34:00,44.6,44.6,30.03,NNE,30,9.2,-999.9,100,-99.99,,,-99.99,,2013-01-12 12:34:00,
2013-01-12 07:40:00,44.6,44.6,30.03,NE,45,12.7,-999.9,100,-99.99,,,-99.99,,2013-01-12 12:40:00,
2013-01-12 07:48:00,44.6,44.6,30.03,NE,45,12.7,-999.9,100,-99.99,,,-99.99,,2013-01-12 12:48:00,
2013-01-12 07:54:00,44.6,44.6,30.04,NE,44,11.5,-999.9,100,-99.99,,,-99.99,,2013-01-12 12:54:00,
2013-01-12 08:00:00,44.6,44.6,30.05,NNE,22,9.2,-999.9,100,-99.99,,,-99.99,,2013-01-12 13:00:00,
2013-01-12 08:08:00,44.6,44.6,30.05,NNE,22,9.2,-999.9,100,-99.99,,,-99.99,,2013-01-12 13:08:00,
2013-01-12 08:14:00,44.6,44.6,30.06,North,5,2.3,-999.9,100,-99.99,,,-99.99,,2013-01-12 13:14:00,
2013-01-12 08:20:00,44.6,44.6,30.06,NE,42,9.2,-999.9,100,-99.99,,,-99.99,,2013-01-12 13:20:00,
2013-01-12 08:28:00,44.6,44.6,30.06,NE,42,9.2,-999.9,100,-99.99,,,-99.99,,2013-01-12 13:28:00,
2013-01-12 08:34:00,44.6,44.6,30.07,NE,42,8.1,-999.9,100,-99.99,,,-99.99,,2013-01-12 13:34:00,
2013-01-12 08:40:00,44.6,44.6,30.06,NE,48,13.8,-999.9,100,-99.99,,,-99.99,,2013-01-12 13:40:00,
2013-01-12 08:48:00,44.6,44.6,30.06,NE,48,13.8,-999.9,100,-99.99,,,-99.99,,2013-01-12 13:48:00,
2013-01-12 08:54:00,46.4,46.4,30.06,NNE,33,8.1,-999.9,100,-99.99,,,-99.99,,2013-01-12 13:54:00,
2013-01-12 09:00:00,44.6,44.6,30.06,NE,45,12.7,-999.9,100,-99.99,,,-99.99,,2013-01-12 14:00:00,
2013-01-12 09:08:00,44.6,44.6,30.06,NE,45,12.7,-999.9,100,-99.99,,,-99.99,,2013-01-12 14:08:00,
2013-01-12 09:14:00,44.6,44.6,30.06,NE,46,13.8,-999.9,100,-99.99,,,-99.99,,2013-01-12 14:14:00,
2013-01-12 09:20:00,46.4,46.4,30.06,NE,35,9.2,-999.9,100,-99.99,,,-99.99,,2013-01-12 14:20:00,
2013-01-12 09:28:00,46.4,46.4,30.06,NE,35,9.2,-999.9,100,-99.99,,,-99.99,,2013-01-12 14:28:00,
2013-01-12 09:34:00,44.6,42.8,30.07,NE,43,10.4,-999.9,93,-99.99,,,-99.99,,2013-01-12 14:34:00,
2013-01-12 09:40:00,46.4,44.6,30.06,NE,41,11.5,-999.9,93,-99.99,,,-99.99,,2013-01-12 14:40:00,
2013-01-12 09:48:00,46.4,44.6,30.06,NE,41,11.5,-999.9,93,-99.99,,,-99.99,,2013-01-12 14:48:00,
2013-01-12 09:54:00,44.6,42.8,30.06,NE,50,9.2,-999.9,93,-99.99,,,-99.99,,2013-01-12 14:54:00,
2013-01-12 10:00:00,44.6,42.8,30.06,NE,43,11.5,-999.9,93,-99.99,,,-99.99,,2013-01-12 15:00:00,
2013-01-12 10:08:00,44.6,42.8,30.06,NE,43,11.5,-999.9,93,-99.99,,,-99.99,,2013-01-12 15:08:00,
2013-01-12 10:14:00,46.4,44.6,30.06,NE,47,10.4,-999.9,93,-99.99,,,-99.99,,2013-01-12 15:14:00,
2013-01-12 10:21:00,46.4,44.6,30.06,NE,53,10.4,-999.9,93,-99.99,,,-99.99,,2013-01-12 15:21:00,
2013-01-12 10:28:00,46.4,44.6,30.06,NE,53,10.4,-999.9,93,-99.99,,,-99.99,,2013-01-12 15:28:00,
2013-01-12 10:34:00,44.6,42.8,30.06,NE,43,13.8,-999.9,93,-99.99,,,-99.99,,2013-01-12 15:34:00,
2013-01-12 10:40:00,46.4,44.6,30.06,NE,45,12.7,-999.9,93,-99.99,,,-99.99,,2013-01-12 15:40:00,
2013-01-12 10:48:00,46.4,44.6,30.06,NE,45,12.7,-999.9,93,-99.99,,,-99.99,,2013-01-12 15:48:00,
2013-01-12 10:54:00,44.6,42.8,30.06,NE,51,10.4,-999.9,93,-99.99,,,-99.99,,2013-01-12 15:54:00,
2013-01-12 11:00:00,46.4,44.6,30.06,NE,50,4.6,-999.9,93,-99.99,,,-99.99,,2013-01-12 16:00:00,
2013-01-12 11:08:00,46.4,44.6,30.06,NE,50,4.6,-999.9,93,-99.99,,,-99.99,,2013-01-12 16:08:00,
2013-01-12 11:14:00,44.6,42.8,30.06,NE,47,11.5,-999.9,93,-99.99,,,-99.99,,2013-01-12 16:14:00,
2013-01-12 11:20:00,44.6,42.8,30.06,NE,43,11.5,-999.9,93,-99.99,,,-99.99,,2013-01-12 16:20:00,
2013-01-12 11:28:00,44.6,42.8,30.06,NE,43,11.5,-999.9,93,-99.99,,,-99.99,,2013-01-12 16:28:00,
2013-01-12 11:34:00,44.6,42.8,30.06,NE,39,12.7,-999.9,93,-99.99,,,-99.99,,2013-01-12 16:34:00,
2013-01-12 11:40:00,44.6,42.8,30.06,NE,50,9.2,-999.9,93,-99.99,,,-99.99,,2013-01-12 16:40:00,
2013-01-12 11:48:00,44.6,42.8,30.06,NE,50,9.2,-999.9,93,-99.99,,,-99.99,,2013-01-12 16:48:00,
2013-01-12 11:54:00,44.6,42.8,30.05,NE,44,11.5,-999.9,93,-99.99,,,-99.99,,2013-01-12 16:54:00,
2013-01-12 12:00:00,44.6,42.8,30.05,NE,40,11.5,-999.9,93,-99.99,,,-99.99,,2013-01-12 17:00:00,
2013-01-12 12:08:00,44.6,42.8,30.05,NE,40,11.5,-999.9,93,-99.99,,,-99.99,,2013-01-12 17:08:00,
2013-01-12 12:14:00,44.6,42.8,30.06,NNE,33,9.2,-999.9,93,-99.99,,,-99.99,,2013-01-12 17:14:00,
2013-01-12 12:20:00,46.4,44.6,30.05,NE,52,6.9,-999.9,93,-99.99,,,-99.99,,2013-01-12 17:20:00,
2013-01-12 12:28:00,46.4,44.6,30.05,NE,52,6.9,-999.9,93,-99.99,,,-99.99,,2013-01-12 17:28:00,
2013-01-12 12:34:00,46.4,44.6,30.05,NE,40,9.2,-999.9,93,-99.99,,,-99.99,,2013-01-12 17:34:00,
2013-01-12 12:40:00,44.6,42.8,30.05,NE,37,15.0,-999.9,93,-99.99,,,-99.99,,2013-01-12 17:40:00,
2013-01-12 12:48:00,44.6,42.8,30.05,NE,37,15.0,-999.9,93,-99.99,,,-99.99,,2013-01-12 17:48:00,
2013-01-12 12:54:00,44.6,44.6,30.04,ENE,66,5.8,-999.9,100,-99.99,,,-99.99,,2013-01-12 17:54:00,
2013-01-12 13:00:00,44.6,44.6,30.05,NE,51,8.1,-999.9,100,-99.99,,,-99.99,,2013-01-12 18:00:00,
2013-01-12 13:08:00,44.6,44.6,30.05,NE,51,8.1,-999.9,100,-99.99,,,-99.99,,2013-01-12 18:08:00,
2013-01-12 13:14:00,44.6,44.6,30.05,ENE,66,5.8,-999.9,100,-99.99,,,-99.99,,2013-01-12 18:14:00,
2013-01-12 13:20:00,44.6,42.8,30.05,NE,35,9.2,-999.9,93,-99.99,,,-99.99,,2013-01-12 18:20:00,
2013-01-12 13:28:00,44.6,42.8,30.05,NE,35,9.2,-999.9,93,-99.99,,,-99.99,,2013-01-12 18:28:00,
2013-01-12 13:34:00,44.6,42.8,30.06,NE,39,8.1,-999.9,93,-99.99,,,-99.99,,2013-01-12 18:34:00,
2013-01-12 13:40:00,44.6,42.8,30.06,NE,37,8.1,-999.9,93,-99.99,,,-99.99,,2013-01-12 18:40:00,
2013-01-12 13:48:00,44.6,42.8,30.06,NE,37,8.1,-999.9,93,-99.99,,,-99.99,,2013-01-12 18:48:00,
2013-01-12 13:54:00,46.4,44.6,30.07,ENE,59,6.9,-999.9,93,-99.99,,,-99.99,,2013-01-12 18:54:00,
2013-01-12 14:00:00,44.6,42.8,30.07,NE,43,9.2,-999.9,93,-99.99,,,-99.99,,2013-01-12 19:00:00,
2013-01-12 14:08:00,44.6,42.8,30.07,NE,43,9.2,-999.9,93,-99.99,,,-99.99,,2013-01-12 19:08:00,
2013-01-12 14:14:00,46.4,44.6,30.07,ENE,72,3.5,-999.9,93,-99.99,,,-99.99,,2013-01-12 19:14:00,
2013-01-12 14:20:00,46.4,44.6,30.06,ENE,67,5.8,-999.9,93,-99.99,,,-99.99,,2013-01-12 19:20:00,
2013-01-12 14:28:00,46.4,44.6,30.06,ENE,67,5.8,-999.9,93,-99.99,,,-99.99,,2013-01-12 19:28:00,
2013-01-12 14:34:00,46.4,44.6,30.06,East,90,3.5,-999.9,93,-99.99,,,-99.99,,2013-01-12 19:34:00,
2013-01-12 14:40:00,46.4,44.6,30.06,ENE,57,4.6,-999.9,93,-99.99,,,-99.99,,2013-01-12 19:40:00,
2013-01-12 14:48:00,46.4,44.6,30.06,ENE,57,4.6,-999.9,93,-99.99,,,-99.99,,2013-01-12 19:48:00,
2013-01-12 14:54:00,46.4,44.6,30.05,ENE,78,3.5,-999.9,93,-99.99,,,-99.99,,2013-01-12 19:54:00,
2013-01-12 15:00:00,46.4,44.6,30.06,ENE,77,3.5,-999.9,93,-99.99,,,-99.99,,2013-01-12 20:00:00,
2013-01-12 15:08:00,46.4,44.6,30.06,ENE,77,3.5,-999.9,93,-99.99,,,-99.99,,2013-01-12 20:08:00,
2013-01-12 15:14:00,46.4,44.6,30.05,ENE,63,2.3,-999.9,93,-99.99,,,-99.99,,2013-01-12 20:14:00,
2013-01-12 15:20:00,46.4,44.6,30.06,ENE,65,4.6,-999.9,93,-99.99,,,-99.99,,2013-01-12 20:20:00,
2013-01-12 15:28:00,46.4,44.6,30.06,ENE,65,4.6,-999.9,93,-99.99,,,-99.99,,2013-01-12 20:28:00,
2013-01-12 15:34:00,46.4,44.6,30.06,ENE,69,4.6,-999.9,93,-99.99,,,-99.99,,2013-01-12 20:34:00,
2013-01-12 15:40:00,46.4,44.6,30.05,ENE,59,8.1,-999.9,93,-99.99,,,-99.99,,2013-01-12 20:40:00,
2013-01-12 15:48:00,46.4,44.6,30.05,ENE,59,8.1,-999.9,93,-99.99,,,-99.99,,2013-01-12 20:48:00,
2013-01-12 15:54:00,46.4,44.6,30.06,NE,42,10.4,-999.9,93,-99.99,,,-99.99,,2013-01-12 20:54:00,
2013-01-12 16:00:00,44.6,42.8,30.06,NE,55,4.6,-999.9,93,-99.99,,,-99.99,,2013-01-12 21:00:00,
2013-01-12 16:08:00,44.6,42.8,30.06,NE,55,4.6,-999.9,93,-99.99,,,-99.99,,2013-01-12 21:08:00,
2013-01-12 16:14:00,44.6,42.8,30.06,NE,44,8.1,-999.9,93,-99.99,,,-99.99,,2013-01-12 21:14:00,
2013-01-12 16:20:00,44.6,42.8,30.06,NE,49,6.9,-999.9,93,-99.99,,,-99.99,,2013-01-12 21:20:00,
2013-01-12 16:28:00,44.6,42.8,30.06,NE,49,6.9,-999.9,93,-99.99,,,-99.99,,2013-01-12 21:28:00,
2013-01-12 16:34:00,44.6,42.8,30.06,NE,45,6.9,-999.9,93,-99.99,,,-99.99,,2013-01-12 21:34:00,
2013-01-12 16:40:00,44.6,42.8,30.06,NE,47,5.8,-999.9,93,-99.99,,,-99.99,,2013-01-12 21:40:00,
2013-01-12 16:48:00,44.6,42.8,30.06,NE,47,5.8,-999.9,93,-99.99,,,-99.99,,2013-01-12 21:48:00,
2013-01-12 16:54:00,44.6,42.8,30.07,NE,42,8.1,-999.9,93,-99.99,,,-99.99,,2013-01-12 21:54:00,
2013-01-12 17:00:00,44.6,42.8,30.08,NNE,33,5.8,-999.9,93,-99.99,,,-99.99,,2013-01-12 22:00:00,
2013-01-12 17:08:00,44.6,42.8,30.08,NNE,33,5.8,-999.9,93,-99.99,,,-99.99,,2013-01-12 22:08:00,
2013-01-12 17:14:00,44.6,44.6,30.09,NE,34,11.5,-999.9,100,-99.99,,,-99.99,,2013-01-12 22:14:00,
2013-01-12 17:20:00,44.6,44.6,30.08,NE,49,5.8,-999.9,100,-99.99,,,-99.99,,2013-01-12 22:20:00,
2013-01-12 17:28:00,44.6,44.6,30.08,NE,49,5.8,-999.9,100,-99.99,,,-99.99,,2013-01-12 22:28:00,
2013-01-12 17:34:00,44.6,44.6,30.09,NE,55,8.1,-999.9,100,-99.99,,,-99.99,,2013-01-12 22:34:00,
2013-01-12 17:40:00,44.6,44.6,30.09,NNE,22,4.6,-999.9,100,-99.99,,,-99.99,,2013-01-12 22:40:00,
2013-01-12 17:48:00,44.6,44.6,30.09,NNE,22,4.6,-999.9,100,-99.99,,,-99.99,,2013-01-12 22:48:00,
2013-01-12 17:54:00,44.6,44.6,30.10,North,11,9.2,-999.9,100,-99.99,,,-99.99,,2013-01-12 22:54:00,
2013-01-12 18:00:00,44.6,44.6,30.10,NE,35,6.9,-999.9,100,-99.99,,,-99.99,,2013-01-12 23:00:00,
2013-01-12 18:08:00,44.6,44.6,30.10,NE,35,6.9,-999.9,100,-99.99,,,-99.99,,2013-01-12 23:08:00,
2013-01-12 18:16:00,44.6,44.6,30.10,NE,46,5.8,-999.9,100,-99.99,,,-99.99,,2013-01-12 23:16:00,
2013-01-12 18:22:00,44.6,44.6,30.10,NE,37,8.1,-999.9,100,-99.99,,,-99.99,,2013-01-12 23:22:00,
2013-01-12 18:30:00,44.6,44.6,30.09,ENE,71,3.5,-999.9,100,-99.99,,,-99.99,,2013-01-12 23:30:00,
2013-01-12 18:36:00,44.6,44.6,30.09,ENE,71,3.5,-999.9,100,-99.99,,,-99.99,,2013-01-12 23:36:00,
2013-01-12 18:42:00,44.6,44.6,30.09,East,98,4.6,-999.9,100,-99.99,,,-99.99,,2013-01-12 23:42:00,
2013-01-12 18:50:00,44.6,44.6,30.08,East,85,3.5,-999.9,100,-99.99,,,-99.99,,2013-01-12 23:50:00,
2013-01-12 18:56:00,44.6,44.6,30.08,East,85,3.5,-999.9,100,-99.99,,,-99.99,,2013-01-12 23:56:00,
2013-01-12 19:02:00,44.6,44.6,30.08,East,85,3.5,-999.9,100,-99.99,,,-99.99,,2013-01-13 00:02:00,
2013-01-12 19:10:00,44.6,44.6,30.07,East,93,5.8,-999.9,100,-99.99,,,-99.99,,2013-01-13 00:10:00,
2013-01-12 19:16:00,44.6,44.6,30.07,East,93,5.8,-999.9,100,-99.99,,,-99.99,,2013-01-13 00:16:00,
2013-01-12 20:10:00,42.8,42.8,30.09,NE,38,2.3,-999.9,100,-99.99,,,-99.99,,2013-01-13 01:10:00,
2013-01-12 20:18:00,42.8,42.8,30.09,NE,38,2.3,-999.9,100,-99.99,,,-99.99,,2013-01-13 01:18:00,
2013-01-12 20:24:00,42.8,42.8,30.09,SE,140,0.0,-999.9,100,-99.99,,,-99.99,,2013-01-13 01:24:00,
2013-01-12 20:32:00,42.8,42.8,30.08,North,0,0.0,-999.9,100,-99.99,,,-99.99,,2013-01-13 01:32:00,
2013-01-12 20:38:00,42.8,42.8,30.08,North,0,0.0,-999.9,100,-99.99,,,-99.99,,2013-01-13 01:38:00,
2013-01-12 20:44:00,42.8,42.8,30.08,North,352,3.5,-999.9,100,-99.99,,,-99.99,,2013-01-13 01:44:00,
2013-01-12 20:52:00,42.8,42.8,30.08,NNW,345,3.5,-999.9,100,-99.99,,,-99.99,,2013-01-13 01:52:00,
2013-01-12 20:58:00,42.8,42.8,30.08,NNW,345,3.5,-999.9,100,-99.99,,,-99.99,,2013-01-13 01:58:00,
2013-01-12 21:04:00,42.8,42.8,30.08,ENE,59,1.2,-999.9,100,-99.99,,,-99.99,,2013-01-13 02:04:00,
2013-01-12 21:12:00,42.8,42.8,30.07,North,0,0.0,-999.9,100,-99.99,,,-99.99,,2013-01-13 02:12:00,
2013-01-12 21:18:00,42.8,42.8,30.07,North,0,0.0,-999.9,100,-99.99,,,-99.99,,2013-01-13 02:18:00,
2013-01-12 21:24:00,42.8,42.8,30.06,SE,124,0.0,-999.9,100,-99.99,,,-99.99,,2013-01-13 02:24:00,
2013-01-12 21:32:00,42.8,42.8,30.06,East,99,1.2,-999.9,100,-99.99,,,-99.99,,2013-01-13 02:32:00,
2013-01-12 21:38:00,42.8,42.8,30.06,East,99,1.2,-999.9,100,-99.99,,,-99.99,,2013-01-13 02:38:00,
2013-01-12 21:44:00,42.8,42.8,30.06,East,99,5.8,-999.9,100,-99.99,,,-99.99,,2013-01-13 02:44:00,
2013-01-12 21:52:00,42.8,42.8,30.06,ENE,78,1.2,-999.9,100,-99.99,,,-99.99,,2013-01-13 02:52:00,
2013-01-12 21:58:00,42.8,42.8,30.06,ENE,78,1.2,-999.9,100,-99.99,,,-99.99,,2013-01-13 02:58:00,
2013-01-12 22:04:00,42.8,42.8,30.06,ENE,78,1.2,-999.9,100,-99.99,,,-99.99,,2013-01-13 03:04:00,
2013-01-12 22:12:00,42.8,42.8,30.06,East,99,2.3,-999.9,100,-99.99,,,-99.99,,2013-01-13 03:12:00,
2013-01-12 22:22:00,42.8,42.8,30.06,East,88,3.5,-999.9,100,-99.99,,,-99.99,,2013-01-13 03:22:00,
2013-01-12 22:28:00,42.8,42.8,30.06,East,88,3.5,-999.9,100,-99.99,,,-99.99,,2013-01-13 03:28:00,
2013-01-12 22:34:00,42.8,42.8,30.07,NE,49,3.5,-999.9,100,-99.99,,,-99.99,,2013-01-13 03:34:00,
2013-01-12 22:42:00,42.8,42.8,30.06,ENE,57,2.3,-999.9,100,-99.99,,,-99.99,,2013-01-13 03:42:00,
2013-01-12 22:48:00,42.8,42.8,30.06,ENE,57,2.3,-999.9,100,-99.99,,,-99.99,,2013-01-13 03:48:00,
2013-01-12 22:54:00,42.8,42.8,30.06,East,86,2.3,-999.9,100,-99.99,,,-99.99,,2013-01-13 03:54:00,
2013-01-12 23:02:00,42.8,42.8,30.06,ESE,111,2.3,-999.9,100,-99.99,,,-99.99,,2013-01-13 04:02:00,
2013-01-12 23:08:00,42.8,42.8,30.06,ESE,111,2.3,-999.9,100,-99.99,,,-99.99,,2013-01-13 04:08:00,
2013-01-12 23:14:00,42.8,42.8,30.06,East,80,1.2,-999.9,100,-99.99,,,-99.99,,2013-01-13 04:14:00,
2013-01-12 23:22:00,42.8,42.8,30.06,NNE,32,3.5,-999.9,100,-99.99,,,-99.99,,2013-01-13 04:22:00,
2013-01-12 23:28:00,42.8,42.8,30.06,NNE,32,3.5,-999.9,100,-99.99,,,-99.99,,2013-01-13 04:28:00,
2013-01-12 23:34:00,42.8,42.8,30.07,NE,48,0.0,-999.9,100,-99.99,,,-99.99,,2013-01-13 04:34:00,
2013-01-12 23:42:00,42.8,42.8,30.07,North,0,0.0,-999.9,100,-99.99,,,-99.99,,2013-01-13 04:42:00,
2013-01-12 23:50:00,42.8,42.8,30.06,SE,139,0.0,-999.9,100,-99.99,,,-99.99,,2013-01-13 04:50:00,
2013-01-12 23:56:00,42.8,42.8,30.06,SE,139,0.0,-999.9,100,-99.99,,,-99.99,,2013-01-13 04:56:00,